sensor_id;sensor_type;location;lat;lon;timestamp;temperature;humidity
15713;DHT22;7957;51.608;6.916;2022-08-14T00:00:10;23.50;1.00
15713;DHT22;7957;51.608;6.916;2022-08-14T00:02:37;23.50;1.00
15713;DHT22;7957;51.608;6.916;2022-08-14T00:05:06;23.50;1.00
15713;DHT22;7957;51.608;6.916;2022-08-14T00:07:33;23.50;1.00
15713;DHT22;7957;51.608;6.916;2022-08-14T00:10:00;23.40;1.00
15713;DHT22;7957;51.608;6.916;2022-08-14T00:12:28;23.40;1.00
15713;DHT22;7957;51.608;6.916;2022-08-14T00:14:57;23.40;1.00
15713;DHT22;7957;51.608;6.916;2022-08-14T00:17:24;23.40;1.00
15713;DHT22;7957;51.608;6.916;2022-08-14T00:19:51;23.40;1.00
15713;DHT22;7957;51.608;6.916;2022-08-14T00:22:19;23.40;1.00
15713;DHT22;7957;51.608;6.916;2022-08-14T00:24:47;23.30;1.00
15713;DHT22;7957;51.608;6.916;2022-08-14T00:27:14;23.30;1.00
15713;DHT22;7957;51.608;6.916;2022-08-14T00:29:41;23.30;1.00
15713;DHT22;7957;51.608;6.916;2022-08-14T00:32:10;23.30;1.00
15713;DHT22;7957;51.608;6.916;2022-08-14T00:34:38;23.30;1.00
15713;DHT22;7957;51.608;6.916;2022-08-14T00:37:05;23.20;1.00
15713;DHT22;7957;51.608;6.916;2022-08-14T00:39:33;23.20;1.00
15713;DHT22;7957;51.608;6.916;2022-08-14T00:42:00;23.20;1.00
15713;DHT22;7957;51.608;6.916;2022-08-14T00:44:27;23.20;1.00
15713;DHT22;7957;51.608;6.916;2022-08-14T00:46:54;23.10;1.00
15713;DHT22;7957;51.608;6.916;2022-08-14T00:49:23;23.10;1.00
15713;DHT22;7957;51.608;6.916;2022-08-14T00:51:50;23.10;1.00
15713;DHT22;7957;51.608;6.916;2022-08-14T00:54:16;23.10;1.00
15713;DHT22;7957;51.608;6.916;2022-08-14T00:56:44;23.00;1.00
15713;DHT22;7957;51.608;6.916;2022-08-14T00:59:11;23.00;1.00
15713;DHT22;7957;51.608;6.916;2022-08-14T01:01:39;23.00;1.00
15713;DHT22;7957;51.608;6.916;2022-08-14T01:04:06;23.00;1.00
15713;DHT22;7957;51.608;6.916;2022-08-14T01:06:35;23.00;1.00
15713;DHT22;7957;51.608;6.916;2022-08-14T01:09:02;22.90;1.00
15713;DHT22;7957;51.608;6.916;2022-08-14T01:11:30;22.90;1.00
15713;DHT22;7957;51.608;6.916;2022-08-14T01:13:58;22.90;1.00
15713;DHT22;7957;51.608;6.916;2022-08-14T01:16:26;22.90;1.00
15713;DHT22;7957;51.608;6.916;2022-08-14T01:18:55;22.80;1.00
15713;DHT22;7957;51.608;6.916;2022-08-14T01:21:41;22.80;1.00
15713;DHT22;7957;51.608;6.916;2022-08-14T01:24:10;22.80;1.00
15713;DHT22;7957;51.608;6.916;2022-08-14T01:26:40;22.80;1.00
15713;DHT22;7957;51.608;6.916;2022-08-14T01:29:08;22.80;1.00
15713;DHT22;7957;51.608;6.916;2022-08-14T01:31:37;22.70;1.00
15713;DHT22;7957;51.608;6.916;2022-08-14T01:34:05;22.70;1.00
15713;DHT22;7957;51.608;6.916;2022-08-14T01:36:40;22.70;1.00
15713;DHT22;7957;51.608;6.916;2022-08-14T01:39:09;22.70;1.00
15713;DHT22;7957;51.608;6.916;2022-08-14T01:41:37;22.70;1.00
15713;DHT22;7957;51.608;6.916;2022-08-14T01:44:06;22.60;1.00
15713;DHT22;7957;51.608;6.916;2022-08-14T01:46:38;22.60;1.00
15713;DHT22;7957;51.608;6.916;2022-08-14T01:49:07;22.60;1.00
15713;DHT22;7957;51.608;6.916;2022-08-14T01:51:35;22.60;1.00
15713;DHT22;7957;51.608;6.916;2022-08-14T01:54:07;22.60;1.00
15713;DHT22;7957;51.608;6.916;2022-08-14T01:56:35;22.60;1.00
15713;DHT22;7957;51.608;6.916;2022-08-14T01:59:04;22.50;1.00
15713;DHT22;7957;51.608;6.916;2022-08-14T02:01:31;22.50;1.00
15713;DHT22;7957;51.608;6.916;2022-08-14T02:03:59;22.50;1.00
15713;DHT22;7957;51.608;6.916;2022-08-14T02:06:27;22.50;1.00
15713;DHT22;7957;51.608;6.916;2022-08-14T02:08:54;22.50;1.00
15713;DHT22;7957;51.608;6.916;2022-08-14T02:11:25;22.50;1.00
15713;DHT22;7957;51.608;6.916;2022-08-14T02:13:59;22.40;1.00
15713;DHT22;7957;51.608;6.916;2022-08-14T02:16:30;22.40;1.00
15713;DHT22;7957;51.608;6.916;2022-08-14T02:19:03;22.40;1.00
15713;DHT22;7957;51.608;6.916;2022-08-14T02:21:30;22.40;1.00
15713;DHT22;7957;51.608;6.916;2022-08-14T02:23:59;22.40;1.00
15713;DHT22;7957;51.608;6.916;2022-08-14T02:26:30;22.30;1.00
15713;DHT22;7957;51.608;6.916;2022-08-14T02:28:58;22.30;1.00
15713;DHT22;7957;51.608;6.916;2022-08-14T02:31:26;22.30;1.00
15713;DHT22;7957;51.608;6.916;2022-08-14T02:33:57;22.30;1.00
15713;DHT22;7957;51.608;6.916;2022-08-14T02:36:25;22.30;1.00
15713;DHT22;7957;51.608;6.916;2022-08-14T02:38:52;22.30;1.00
15713;DHT22;7957;51.608;6.916;2022-08-14T02:41:19;22.20;1.00
15713;DHT22;7957;51.608;6.916;2022-08-14T02:43:50;22.20;1.00
15713;DHT22;7957;51.608;6.916;2022-08-14T02:46:17;22.20;1.00
15713;DHT22;7957;51.608;6.916;2022-08-14T02:48:43;22.20;1.00
15713;DHT22;7957;51.608;6.916;2022-08-14T02:51:12;22.20;1.00
15713;DHT22;7957;51.608;6.916;2022-08-14T02:53:41;22.10;1.00
15713;DHT22;7957;51.608;6.916;2022-08-14T02:56:11;22.10;1.00
15713;DHT22;7957;51.608;6.916;2022-08-14T02:58:42;22.10;1.00
15713;DHT22;7957;51.608;6.916;2022-08-14T03:01:13;22.10;1.00
15713;DHT22;7957;51.608;6.916;2022-08-14T03:03:41;22.10;1.00
15713;DHT22;7957;51.608;6.916;2022-08-14T03:06:09;22.10;1.00
15713;DHT22;7957;51.608;6.916;2022-08-14T03:08:38;22.00;1.00
15713;DHT22;7957;51.608;6.916;2022-08-14T03:11:08;22.00;1.00
15713;DHT22;7957;51.608;6.916;2022-08-14T03:13:37;22.00;1.00
15713;DHT22;7957;51.608;6.916;2022-08-14T03:16:05;22.00;1.00
15713;DHT22;7957;51.608;6.916;2022-08-14T03:18:34;22.00;1.00
15713;DHT22;7957;51.608;6.916;2022-08-14T03:21:03;22.00;1.00
15713;DHT22;7957;51.608;6.916;2022-08-14T03:23:30;21.90;1.00
15713;DHT22;7957;51.608;6.916;2022-08-14T03:25:59;21.90;1.00
15713;DHT22;7957;51.608;6.916;2022-08-14T03:28:28;21.90;1.00
15713;DHT22;7957;51.608;6.916;2022-08-14T03:30:55;21.80;1.00
15713;DHT22;7957;51.608;6.916;2022-08-14T03:33:23;21.80;1.00
15713;DHT22;7957;51.608;6.916;2022-08-14T03:35:51;21.80;1.00
15713;DHT22;7957;51.608;6.916;2022-08-14T03:38:18;21.80;1.00
15713;DHT22;7957;51.608;6.916;2022-08-14T03:40:45;21.80;1.00
15713;DHT22;7957;51.608;6.916;2022-08-14T03:43:13;21.80;1.00
15713;DHT22;7957;51.608;6.916;2022-08-14T03:45:40;21.70;1.00
15713;DHT22;7957;51.608;6.916;2022-08-14T03:48:11;21.70;1.00
15713;DHT22;7957;51.608;6.916;2022-08-14T03:50:40;21.70;1.00
15713;DHT22;7957;51.608;6.916;2022-08-14T03:53:09;21.70;1.00
15713;DHT22;7957;51.608;6.916;2022-08-14T03:55:39;21.70;1.00
15713;DHT22;7957;51.608;6.916;2022-08-14T03:58:07;21.70;1.00
15713;DHT22;7957;51.608;6.916;2022-08-14T04:00:35;21.60;1.00
15713;DHT22;7957;51.608;6.916;2022-08-14T04:03:05;21.60;1.00
15713;DHT22;7957;51.608;6.916;2022-08-14T04:05:33;21.60;1.00
15713;DHT22;7957;51.608;6.916;2022-08-14T04:08:03;21.60;1.00
15713;DHT22;7957;51.608;6.916;2022-08-14T04:10:31;21.60;1.00
15713;DHT22;7957;51.608;6.916;2022-08-14T04:12:59;21.60;1.00
15713;DHT22;7957;51.608;6.916;2022-08-14T04:15:26;21.60;1.00
15713;DHT22;7957;51.608;6.916;2022-08-14T04:17:53;21.50;1.00
15713;DHT22;7957;51.608;6.916;2022-08-14T04:20:21;21.50;1.00
15713;DHT22;7957;51.608;6.916;2022-08-14T04:22:48;21.50;1.00
15713;DHT22;7957;51.608;6.916;2022-08-14T04:25:15;21.50;1.00
15713;DHT22;7957;51.608;6.916;2022-08-14T04:27:45;21.50;1.00
15713;DHT22;7957;51.608;6.916;2022-08-14T04:30:12;21.50;1.00
15713;DHT22;7957;51.608;6.916;2022-08-14T04:32:39;21.50;1.00
15713;DHT22;7957;51.608;6.916;2022-08-14T04:35:07;21.50;1.00
15713;DHT22;7957;51.608;6.916;2022-08-14T04:37:34;21.50;1.00
15713;DHT22;7957;51.608;6.916;2022-08-14T04:40:18;21.40;1.00
15713;DHT22;7957;51.608;6.916;2022-08-14T04:43:04;21.40;1.00
15713;DHT22;7957;51.608;6.916;2022-08-14T04:46:00;21.40;1.00
15713;DHT22;7957;51.608;6.916;2022-08-14T04:48:27;21.40;1.00
15713;DHT22;7957;51.608;6.916;2022-08-14T04:50:53;21.40;1.00
15713;DHT22;7957;51.608;6.916;2022-08-14T04:53:22;21.40;1.00
15713;DHT22;7957;51.608;6.916;2022-08-14T04:55:50;21.40;1.00
15713;DHT22;7957;51.608;6.916;2022-08-14T04:58:20;21.40;1.00
15713;DHT22;7957;51.608;6.916;2022-08-14T05:00:49;21.40;1.00
15713;DHT22;7957;51.608;6.916;2022-08-14T05:03:16;21.40;1.00
15713;DHT22;7957;51.608;6.916;2022-08-14T05:05:45;21.30;1.00
15713;DHT22;7957;51.608;6.916;2022-08-14T05:08:12;21.40;1.00
15713;DHT22;7957;51.608;6.916;2022-08-14T05:10:42;21.40;1.00
15713;DHT22;7957;51.608;6.916;2022-08-14T05:13:09;21.30;1.00
15713;DHT22;7957;51.608;6.916;2022-08-14T05:15:40;21.40;1.00
15713;DHT22;7957;51.608;6.916;2022-08-14T05:18:10;21.40;1.00
15713;DHT22;7957;51.608;6.916;2022-08-14T05:20:38;21.40;1.00
15713;DHT22;7957;51.608;6.916;2022-08-14T05:23:07;21.40;1.00
15713;DHT22;7957;51.608;6.916;2022-08-14T05:25:34;21.40;1.00
15713;DHT22;7957;51.608;6.916;2022-08-14T05:28:08;21.40;1.00
15713;DHT22;7957;51.608;6.916;2022-08-14T05:30:36;21.40;1.00
15713;DHT22;7957;51.608;6.916;2022-08-14T05:33:04;21.40;1.00
15713;DHT22;7957;51.608;6.916;2022-08-14T05:35:32;21.40;1.00
15713;DHT22;7957;51.608;6.916;2022-08-14T05:37:59;21.40;1.00
15713;DHT22;7957;51.608;6.916;2022-08-14T05:40:26;21.40;1.00
15713;DHT22;7957;51.608;6.916;2022-08-14T05:42:54;21.40;1.00
15713;DHT22;7957;51.608;6.916;2022-08-14T05:45:21;21.40;1.00
15713;DHT22;7957;51.608;6.916;2022-08-14T05:47:47;21.50;1.00
15713;DHT22;7957;51.608;6.916;2022-08-14T05:50:16;21.50;1.00
15713;DHT22;7957;51.608;6.916;2022-08-14T05:52:43;21.50;1.00
15713;DHT22;7957;51.608;6.916;2022-08-14T05:55:10;21.50;1.00
15713;DHT22;7957;51.608;6.916;2022-08-14T05:57:48;21.60;1.00
15713;DHT22;7957;51.608;6.916;2022-08-14T06:00:16;21.50;1.00
15713;DHT22;7957;51.608;6.916;2022-08-14T06:02:44;21.60;1.00
15713;DHT22;7957;51.608;6.916;2022-08-14T06:05:12;21.60;1.00
15713;DHT22;7957;51.608;6.916;2022-08-14T06:07:40;21.60;1.00
15713;DHT22;7957;51.608;6.916;2022-08-14T06:10:08;21.60;1.00
15713;DHT22;7957;51.608;6.916;2022-08-14T06:12:36;21.60;1.00
15713;DHT22;7957;51.608;6.916;2022-08-14T06:15:04;21.70;1.00
15713;DHT22;7957;51.608;6.916;2022-08-14T06:17:31;21.70;1.00
15713;DHT22;7957;51.608;6.916;2022-08-14T06:19:58;21.70;1.00
15713;DHT22;7957;51.608;6.916;2022-08-14T06:22:25;21.70;1.00
15713;DHT22;7957;51.608;6.916;2022-08-14T06:24:53;21.80;1.00
15713;DHT22;7957;51.608;6.916;2022-08-14T06:27:20;21.80;1.00
15713;DHT22;7957;51.608;6.916;2022-08-14T06:29:47;21.80;1.00
15713;DHT22;7957;51.608;6.916;2022-08-14T06:32:14;21.90;1.00
15713;DHT22;7957;51.608;6.916;2022-08-14T06:34:41;21.90;1.00
15713;DHT22;7957;51.608;6.916;2022-08-14T06:37:07;21.90;1.00
15713;DHT22;7957;51.608;6.916;2022-08-14T06:39:34;22.00;1.00
15713;DHT22;7957;51.608;6.916;2022-08-14T06:42:03;22.00;1.00
15713;DHT22;7957;51.608;6.916;2022-08-14T06:44:30;22.00;1.00
15713;DHT22;7957;51.608;6.916;2022-08-14T06:46:57;22.00;1.00
15713;DHT22;7957;51.608;6.916;2022-08-14T06:49:25;22.10;1.00
15713;DHT22;7957;51.608;6.916;2022-08-14T06:51:51;22.10;1.00
15713;DHT22;7957;51.608;6.916;2022-08-14T06:54:18;22.20;1.00
15713;DHT22;7957;51.608;6.916;2022-08-14T06:56:45;22.20;1.00
15713;DHT22;7957;51.608;6.916;2022-08-14T06:59:14;22.20;1.00
15713;DHT22;7957;51.608;6.916;2022-08-14T07:01:41;22.30;1.00
15713;DHT22;7957;51.608;6.916;2022-08-14T07:04:25;22.30;1.00
15713;DHT22;7957;51.608;6.916;2022-08-14T07:07:10;22.30;1.00
15713;DHT22;7957;51.608;6.916;2022-08-14T07:09:37;22.40;1.00
15713;DHT22;7957;51.608;6.916;2022-08-14T07:12:04;22.40;1.00
15713;DHT22;7957;51.608;6.916;2022-08-14T07:14:32;22.40;1.00
15713;DHT22;7957;51.608;6.916;2022-08-14T07:16:59;22.50;1.00
15713;DHT22;7957;51.608;6.916;2022-08-14T07:19:26;22.50;1.00
15713;DHT22;7957;51.608;6.916;2022-08-14T07:21:53;22.50;1.00
15713;DHT22;7957;51.608;6.916;2022-08-14T07:24:21;22.60;1.00
15713;DHT22;7957;51.608;6.916;2022-08-14T07:26:48;22.60;1.00
15713;DHT22;7957;51.608;6.916;2022-08-14T07:29:15;22.70;1.00
15713;DHT22;7957;51.608;6.916;2022-08-14T07:31:44;22.80;1.00
15713;DHT22;7957;51.608;6.916;2022-08-14T07:34:11;22.90;1.00
15713;DHT22;7957;51.608;6.916;2022-08-14T07:36:38;23.10;1.00
15713;DHT22;7957;51.608;6.916;2022-08-14T07:39:04;23.20;1.00
15713;DHT22;7957;51.608;6.916;2022-08-14T07:41:31;23.30;1.00
15713;DHT22;7957;51.608;6.916;2022-08-14T07:43:58;23.50;1.00
15713;DHT22;7957;51.608;6.916;2022-08-14T07:46:25;23.60;1.00
15713;DHT22;7957;51.608;6.916;2022-08-14T07:48:53;23.80;1.00
15713;DHT22;7957;51.608;6.916;2022-08-14T07:51:21;23.90;1.00
15713;DHT22;7957;51.608;6.916;2022-08-14T07:53:48;24.00;1.00
15713;DHT22;7957;51.608;6.916;2022-08-14T07:56:16;24.10;1.00
15713;DHT22;7957;51.608;6.916;2022-08-14T07:58:43;24.20;1.00
15713;DHT22;7957;51.608;6.916;2022-08-14T08:01:10;24.30;1.00
15713;DHT22;7957;51.608;6.916;2022-08-14T08:03:40;24.40;1.00
15713;DHT22;7957;51.608;6.916;2022-08-14T08:06:10;24.50;1.00
15713;DHT22;7957;51.608;6.916;2022-08-14T08:08:37;24.60;1.00
15713;DHT22;7957;51.608;6.916;2022-08-14T08:11:05;24.70;1.00
15713;DHT22;7957;51.608;6.916;2022-08-14T08:13:32;24.70;1.00
15713;DHT22;7957;51.608;6.916;2022-08-14T08:16:00;24.70;1.00
15713;DHT22;7957;51.608;6.916;2022-08-14T08:18:29;24.80;1.00
15713;DHT22;7957;51.608;6.916;2022-08-14T08:20:57;24.80;1.00
15713;DHT22;7957;51.608;6.916;2022-08-14T08:23:26;24.90;1.00
15713;DHT22;7957;51.608;6.916;2022-08-14T08:25:55;25.00;1.00
15713;DHT22;7957;51.608;6.916;2022-08-14T08:28:24;25.00;1.00
15713;DHT22;7957;51.608;6.916;2022-08-14T08:30:53;25.00;1.00
15713;DHT22;7957;51.608;6.916;2022-08-14T08:33:23;25.10;1.00
15713;DHT22;7957;51.608;6.916;2022-08-14T08:35:52;25.20;1.00
15713;DHT22;7957;51.608;6.916;2022-08-14T08:38:23;25.30;1.00
15713;DHT22;7957;51.608;6.916;2022-08-14T08:40:53;25.40;1.00
15713;DHT22;7957;51.608;6.916;2022-08-14T08:43:22;25.40;1.00
15713;DHT22;7957;51.608;6.916;2022-08-14T08:45:53;25.50;1.00
15713;DHT22;7957;51.608;6.916;2022-08-14T08:48:21;25.60;1.00
15713;DHT22;7957;51.608;6.916;2022-08-14T08:50:48;25.70;1.00
15713;DHT22;7957;51.608;6.916;2022-08-14T08:53:15;25.80;1.00
15713;DHT22;7957;51.608;6.916;2022-08-14T08:55:43;25.90;1.00
15713;DHT22;7957;51.608;6.916;2022-08-14T08:58:14;26.00;1.00
15713;DHT22;7957;51.608;6.916;2022-08-14T09:00:45;26.10;1.00
15713;DHT22;7957;51.608;6.916;2022-08-14T09:03:13;26.20;1.00
15713;DHT22;7957;51.608;6.916;2022-08-14T09:05:49;26.30;1.00
15713;DHT22;7957;51.608;6.916;2022-08-14T09:08:18;26.40;1.00
15713;DHT22;7957;51.608;6.916;2022-08-14T09:10:45;26.50;1.00
15713;DHT22;7957;51.608;6.916;2022-08-14T09:13:14;26.60;1.00
15713;DHT22;7957;51.608;6.916;2022-08-14T09:15:43;26.70;1.00
15713;DHT22;7957;51.608;6.916;2022-08-14T09:18:12;26.70;1.00
15713;DHT22;7957;51.608;6.916;2022-08-14T09:20:41;26.90;1.00
15713;DHT22;7957;51.608;6.916;2022-08-14T09:23:08;27.00;1.00
15713;DHT22;7957;51.608;6.916;2022-08-14T09:25:36;27.10;1.00
15713;DHT22;7957;51.608;6.916;2022-08-14T09:28:04;27.20;1.00
15713;DHT22;7957;51.608;6.916;2022-08-14T09:30:34;27.20;1.00
15713;DHT22;7957;51.608;6.916;2022-08-14T09:33:45;27.30;1.00
15713;DHT22;7957;51.608;6.916;2022-08-14T09:36:31;27.50;1.00
15713;DHT22;7957;51.608;6.916;2022-08-14T09:39:04;27.60;1.00
15713;DHT22;7957;51.608;6.916;2022-08-14T09:41:45;27.70;1.00
15713;DHT22;7957;51.608;6.916;2022-08-14T09:44:27;27.80;1.00
15713;DHT22;7957;51.608;6.916;2022-08-14T09:46:57;27.90;1.00
15713;DHT22;7957;51.608;6.916;2022-08-14T09:49:31;27.90;1.00
15713;DHT22;7957;51.608;6.916;2022-08-14T09:52:03;28.00;1.00
15713;DHT22;7957;51.608;6.916;2022-08-14T09:54:36;28.20;1.00
15713;DHT22;7957;51.608;6.916;2022-08-14T09:57:04;28.30;1.00
15713;DHT22;7957;51.608;6.916;2022-08-14T09:59:42;28.50;1.00
15713;DHT22;7957;51.608;6.916;2022-08-14T10:02:21;28.70;1.00
15713;DHT22;7957;51.608;6.916;2022-08-14T10:04:59;28.80;1.00
15713;DHT22;7957;51.608;6.916;2022-08-14T10:07:31;29.10;1.00
15713;DHT22;7957;51.608;6.916;2022-08-14T10:10:00;29.30;1.00
15713;DHT22;7957;51.608;6.916;2022-08-14T10:12:44;29.40;1.00
15713;DHT22;7957;51.608;6.916;2022-08-14T10:15:18;29.60;1.00
15713;DHT22;7957;51.608;6.916;2022-08-14T10:17:47;29.70;1.00
15713;DHT22;7957;51.608;6.916;2022-08-14T10:20:15;29.90;99.90
15713;DHT22;7957;51.608;6.916;2022-08-14T10:22:46;30.00;99.90
15713;DHT22;7957;51.608;6.916;2022-08-14T10:25:15;30.10;99.90
15713;DHT22;7957;51.608;6.916;2022-08-14T10:27:43;30.20;99.90
15713;DHT22;7957;51.608;6.916;2022-08-14T10:30:15;30.30;99.90
15713;DHT22;7957;51.608;6.916;2022-08-14T10:32:43;30.30;99.90
15713;DHT22;7957;51.608;6.916;2022-08-14T10:35:12;30.50;99.90
15713;DHT22;7957;51.608;6.916;2022-08-14T10:37:43;30.50;99.90
15713;DHT22;7957;51.608;6.916;2022-08-14T10:40:14;30.60;99.90
15713;DHT22;7957;51.608;6.916;2022-08-14T10:42:42;30.70;99.90
15713;DHT22;7957;51.608;6.916;2022-08-14T10:45:18;30.70;99.90
15713;DHT22;7957;51.608;6.916;2022-08-14T10:47:46;30.80;99.90
15713;DHT22;7957;51.608;6.916;2022-08-14T10:50:15;30.80;99.90
15713;DHT22;7957;51.608;6.916;2022-08-14T10:52:42;30.90;99.90
15713;DHT22;7957;51.608;6.916;2022-08-14T10:55:12;31.00;99.90
15713;DHT22;7957;51.608;6.916;2022-08-14T10:57:47;31.00;99.90
15713;DHT22;7957;51.608;6.916;2022-08-14T11:00:17;31.10;99.90
15713;DHT22;7957;51.608;6.916;2022-08-14T11:02:56;31.30;99.90
15713;DHT22;7957;51.608;6.916;2022-08-14T11:05:25;31.40;99.90
15713;DHT22;7957;51.608;6.916;2022-08-14T11:07:56;31.50;99.90
15713;DHT22;7957;51.608;6.916;2022-08-14T11:10:37;31.70;99.90
15713;DHT22;7957;51.608;6.916;2022-08-14T11:13:04;31.80;99.90
15713;DHT22;7957;51.608;6.916;2022-08-14T11:15:32;32.10;99.90
15713;DHT22;7957;51.608;6.916;2022-08-14T11:17:59;32.20;99.90
15713;DHT22;7957;51.608;6.916;2022-08-14T11:20:29;32.40;99.90
15713;DHT22;7957;51.608;6.916;2022-08-14T11:22:59;32.70;99.90
15713;DHT22;7957;51.608;6.916;2022-08-14T11:25:27;32.90;99.90
15713;DHT22;7957;51.608;6.916;2022-08-14T11:27:57;33.20;99.90
15713;DHT22;7957;51.608;6.916;2022-08-14T11:30:29;33.20;99.90
15713;DHT22;7957;51.608;6.916;2022-08-14T11:32:56;33.60;99.90
15713;DHT22;7957;51.608;6.916;2022-08-14T11:35:25;33.90;99.90
15713;DHT22;7957;51.608;6.916;2022-08-14T11:37:55;34.20;99.90
15713;DHT22;7957;51.608;6.916;2022-08-14T11:40:24;34.50;99.90
15713;DHT22;7957;51.608;6.916;2022-08-14T11:42:52;34.80;99.90
15713;DHT22;7957;51.608;6.916;2022-08-14T11:45:20;35.10;99.90
15713;DHT22;7957;51.608;6.916;2022-08-14T11:47:47;35.30;99.90
15713;DHT22;7957;51.608;6.916;2022-08-14T11:50:15;35.60;99.90
15713;DHT22;7957;51.608;6.916;2022-08-14T11:52:43;35.70;99.90
15713;DHT22;7957;51.608;6.916;2022-08-14T11:55:13;35.90;99.90
15713;DHT22;7957;51.608;6.916;2022-08-14T11:57:41;36.20;99.90
15713;DHT22;7957;51.608;6.916;2022-08-14T12:00:10;36.40;99.90
15713;DHT22;7957;51.608;6.916;2022-08-14T12:02:49;36.60;99.90
15713;DHT22;7957;51.608;6.916;2022-08-14T12:05:30;36.90;99.90
15713;DHT22;7957;51.608;6.916;2022-08-14T12:07:58;37.10;99.90
15713;DHT22;7957;51.608;6.916;2022-08-14T12:10:27;37.30;99.90
15713;DHT22;7957;51.608;6.916;2022-08-14T12:12:54;37.50;99.90
15713;DHT22;7957;51.608;6.916;2022-08-14T12:15:30;37.60;99.90
15713;DHT22;7957;51.608;6.916;2022-08-14T12:18:01;37.70;99.90
15713;DHT22;7957;51.608;6.916;2022-08-14T12:20:29;37.90;99.90
15713;DHT22;7957;51.608;6.916;2022-08-14T12:22:58;38.00;99.90
15713;DHT22;7957;51.608;6.916;2022-08-14T12:25:28;38.00;99.90
15713;DHT22;7957;51.608;6.916;2022-08-14T12:27:56;38.10;99.90
15713;DHT22;7957;51.608;6.916;2022-08-14T12:30:31;38.20;99.90
15713;DHT22;7957;51.608;6.916;2022-08-14T12:32:58;38.30;99.90
15713;DHT22;7957;51.608;6.916;2022-08-14T12:35:35;38.40;99.90
15713;DHT22;7957;51.608;6.916;2022-08-14T12:38:03;38.40;99.90
15713;DHT22;7957;51.608;6.916;2022-08-14T12:40:31;38.40;99.90
15713;DHT22;7957;51.608;6.916;2022-08-14T12:42:59;38.40;99.90
15713;DHT22;7957;51.608;6.916;2022-08-14T12:45:32;38.00;99.90
15713;DHT22;7957;51.608;6.916;2022-08-14T12:48:01;37.80;99.90
15713;DHT22;7957;51.608;6.916;2022-08-14T12:50:37;37.60;99.90
15713;DHT22;7957;51.608;6.916;2022-08-14T12:53:04;37.50;99.90
15713;DHT22;7957;51.608;6.916;2022-08-14T12:55:34;37.50;99.90
15713;DHT22;7957;51.608;6.916;2022-08-14T12:58:03;37.60;99.90
15713;DHT22;7957;51.608;6.916;2022-08-14T13:00:32;37.60;99.90
15713;DHT22;7957;51.608;6.916;2022-08-14T13:03:22;37.60;99.90
15713;DHT22;7957;51.608;6.916;2022-08-14T13:05:49;37.60;99.90
15713;DHT22;7957;51.608;6.916;2022-08-14T13:08:17;37.60;99.90
15713;DHT22;7957;51.608;6.916;2022-08-14T13:10:46;37.70;99.90
15713;DHT22;7957;51.608;6.916;2022-08-14T13:13:15;37.70;99.90
15713;DHT22;7957;51.608;6.916;2022-08-14T13:15:42;37.50;99.90
15713;DHT22;7957;51.608;6.916;2022-08-14T13:18:12;37.50;99.90
15713;DHT22;7957;51.608;6.916;2022-08-14T13:20:40;37.40;99.90
15713;DHT22;7957;51.608;6.916;2022-08-14T13:23:08;37.40;99.90
15713;DHT22;7957;51.608;6.916;2022-08-14T13:25:35;37.40;99.90
15713;DHT22;7957;51.608;6.916;2022-08-14T13:28:07;37.20;99.90
15713;DHT22;7957;51.608;6.916;2022-08-14T13:30:34;37.30;99.90
15713;DHT22;7957;51.608;6.916;2022-08-14T13:33:01;37.40;99.90
15713;DHT22;7957;51.608;6.916;2022-08-14T13:35:30;37.30;99.90
15713;DHT22;7957;51.608;6.916;2022-08-14T13:37:57;37.30;99.90
15713;DHT22;7957;51.608;6.916;2022-08-14T13:40:24;37.20;99.90
15713;DHT22;7957;51.608;6.916;2022-08-14T13:42:52;37.10;99.90
15713;DHT22;7957;51.608;6.916;2022-08-14T13:45:21;37.10;99.90
15713;DHT22;7957;51.608;6.916;2022-08-14T13:47:49;37.00;99.90
15713;DHT22;7957;51.608;6.916;2022-08-14T13:50:19;36.90;99.90
15713;DHT22;7957;51.608;6.916;2022-08-14T13:52:48;37.00;99.90
15713;DHT22;7957;51.608;6.916;2022-08-14T13:55:20;36.90;99.90
15713;DHT22;7957;51.608;6.916;2022-08-14T13:57:48;36.70;99.90
15713;DHT22;7957;51.608;6.916;2022-08-14T14:00:16;36.60;99.90
15713;DHT22;7957;51.608;6.916;2022-08-14T14:02:45;36.50;99.90
15713;DHT22;7957;51.608;6.916;2022-08-14T14:05:13;36.40;99.90
15713;DHT22;7957;51.608;6.916;2022-08-14T14:07:45;36.10;99.90
15713;DHT22;7957;51.608;6.916;2022-08-14T14:10:14;35.90;99.90
15713;DHT22;7957;51.608;6.916;2022-08-14T14:12:43;35.70;99.90
15713;DHT22;7957;51.608;6.916;2022-08-14T14:15:12;35.60;99.90
15713;DHT22;7957;51.608;6.916;2022-08-14T14:17:40;35.40;99.90
15713;DHT22;7957;51.608;6.916;2022-08-14T14:20:10;35.30;99.90
15713;DHT22;7957;51.608;6.916;2022-08-14T14:22:39;35.10;99.90
15713;DHT22;7957;51.608;6.916;2022-08-14T14:25:07;35.00;99.90
15713;DHT22;7957;51.608;6.916;2022-08-14T14:27:35;34.90;99.90
15713;DHT22;7957;51.608;6.916;2022-08-14T14:30:05;34.70;99.90
15713;DHT22;7957;51.608;6.916;2022-08-14T14:32:32;34.60;99.90
15713;DHT22;7957;51.608;6.916;2022-08-14T14:35:00;34.40;99.90
15713;DHT22;7957;51.608;6.916;2022-08-14T14:37:29;34.40;99.90
15713;DHT22;7957;51.608;6.916;2022-08-14T14:39:57;34.20;99.90
15713;DHT22;7957;51.608;6.916;2022-08-14T14:42:26;34.20;99.90
15713;DHT22;7957;51.608;6.916;2022-08-14T14:44:59;34.00;99.90
15713;DHT22;7957;51.608;6.916;2022-08-14T14:47:29;33.90;99.90
15713;DHT22;7957;51.608;6.916;2022-08-14T14:49:57;33.80;99.90
15713;DHT22;7957;51.608;6.916;2022-08-14T14:52:26;33.80;99.90
15713;DHT22;7957;51.608;6.916;2022-08-14T14:54:55;33.70;99.90
15713;DHT22;7957;51.608;6.916;2022-08-14T14:57:23;33.60;99.90
15713;DHT22;7957;51.608;6.916;2022-08-14T14:59:50;33.60;99.90
15713;DHT22;7957;51.608;6.916;2022-08-14T15:02:26;33.50;99.90
15713;DHT22;7957;51.608;6.916;2022-08-14T15:04:58;33.40;99.90
15713;DHT22;7957;51.608;6.916;2022-08-14T15:07:25;33.40;99.90
15713;DHT22;7957;51.608;6.916;2022-08-14T15:09:52;33.30;99.90
15713;DHT22;7957;51.608;6.916;2022-08-14T15:12:20;33.20;99.90
15713;DHT22;7957;51.608;6.916;2022-08-14T15:14:47;33.30;99.90
15713;DHT22;7957;51.608;6.916;2022-08-14T15:17:14;33.30;99.90
15713;DHT22;7957;51.608;6.916;2022-08-14T15:19:41;33.30;99.90
15713;DHT22;7957;51.608;6.916;2022-08-14T15:22:10;33.20;99.90
15713;DHT22;7957;51.608;6.916;2022-08-14T15:24:37;33.20;99.90
15713;DHT22;7957;51.608;6.916;2022-08-14T15:27:04;33.20;99.90
15713;DHT22;7957;51.608;6.916;2022-08-14T15:29:33;33.10;99.90
15713;DHT22;7957;51.608;6.916;2022-08-14T15:32:05;33.00;99.90
15713;DHT22;7957;51.608;6.916;2022-08-14T15:34:32;32.90;99.90
15713;DHT22;7957;51.608;6.916;2022-08-14T15:37:00;32.80;99.90
15713;DHT22;7957;51.608;6.916;2022-08-14T15:39:27;32.70;99.90
15713;DHT22;7957;51.608;6.916;2022-08-14T15:41:54;32.60;99.90
15713;DHT22;7957;51.608;6.916;2022-08-14T15:44:26;32.60;99.90
15713;DHT22;7957;51.608;6.916;2022-08-14T15:46:55;32.50;99.90
15713;DHT22;7957;51.608;6.916;2022-08-14T15:49:22;32.40;99.90
15713;DHT22;7957;51.608;6.916;2022-08-14T15:51:52;32.40;99.90
15713;DHT22;7957;51.608;6.916;2022-08-14T15:54:20;32.30;99.90
15713;DHT22;7957;51.608;6.916;2022-08-14T15:56:55;32.30;99.90
15713;DHT22;7957;51.608;6.916;2022-08-14T15:59:22;32.20;99.90
15713;DHT22;7957;51.608;6.916;2022-08-14T16:01:49;32.10;99.90
15713;DHT22;7957;51.608;6.916;2022-08-14T16:04:18;32.00;99.90
15713;DHT22;7957;51.608;6.916;2022-08-14T16:06:48;32.00;99.90